createdAt,value
2019-01-06T00:01:49.375Z,7.60
2019-01-06T00:04:40.382Z,6.63
2019-01-06T00:07:29.099Z,7.37
2019-01-06T00:10:14.079Z,10.27
2019-01-06T00:13:20.374Z,5.87
2019-01-06T00:16:05.898Z,5.93
2019-01-06T00:18:50.813Z,3.57
2019-01-06T00:21:43.242Z,4.47
2019-01-06T00:24:46.440Z,4.27
2019-01-06T00:27:29.786Z,6.53
2019-01-06T00:30:11.006Z,3.33
2019-01-06T00:32:57.723Z,4.43
2019-01-06T00:36:02.537Z,5.25
2019-01-06T00:38:43.779Z,6.27
2019-01-06T00:41:27.930Z,5.65
2019-01-06T00:44:34.085Z,4.30
2019-01-06T00:47:19.219Z,4.77
2019-01-06T00:50:06.143Z,5.07
2019-01-06T00:52:59.918Z,4.53
2019-01-06T00:55:46.414Z,4.53
2019-01-06T00:58:37.365Z,4.97
2019-01-06T01:01:23.769Z,4.63
2019-01-06T01:04:09.519Z,5.00
2019-01-06T01:06:51.244Z,4.90
2019-01-06T01:09:53.090Z,4.43
2019-01-06T01:12:37.613Z,6.93
2019-01-06T01:15:24.739Z,4.57
2019-01-06T01:18:18.511Z,4.90
2019-01-06T01:21:06.011Z,5.60
2019-01-06T01:23:52.758Z,6.17
2019-01-06T01:26:37.426Z,5.83
2019-01-06T01:29:24.193Z,6.73
2019-01-06T01:32:15.843Z,5.13
2019-01-06T01:35:03.680Z,5.20
2019-01-06T01:37:49.902Z,4.47
2019-01-06T01:40:36.943Z,5.87
2019-01-06T01:43:27.844Z,4.10
2019-01-06T01:46:14.348Z,4.40
2019-01-06T01:49:01.202Z,4.47
2019-01-06T01:51:58.041Z,6.33
2019-01-06T01:54:57.753Z,5.43
2019-01-06T01:58:03.904Z,4.00
2019-01-06T02:00:50.597Z,3.67
2019-01-06T02:03:39.670Z,6.43
2019-01-06T02:06:26.101Z,4.00
2019-01-06T02:09:32.301Z,5.37
2019-01-06T02:12:18.577Z,4.50
2019-01-06T02:15:15.208Z,5.17
2019-01-06T02:18:15.110Z,4.17
2019-01-06T02:20:56.674Z,5.37
2019-01-06T02:24:02.895Z,4.27
2019-01-06T02:26:49.718Z,3.53
2019-01-06T02:29:36.457Z,4.33
2019-01-06T02:32:26.122Z,4.60
2019-01-06T02:35:22.813Z,3.47
2019-01-06T02:38:22.865Z,4.00
2019-01-06T02:41:22.258Z,4.23
2019-01-06T02:44:19.223Z,4.83
2019-01-06T02:47:05.641Z,7.20
2019-01-06T02:49:52.343Z,10.00
2019-01-06T02:52:49.346Z,11.83
2019-01-06T02:55:36.513Z,13.03
2019-01-06T02:58:21.769Z,9.50
2019-01-06T03:01:02.176Z,13.40
2019-01-06T03:04:05.386Z,16.37
2019-01-06T03:07:05.312Z,14.63
2019-01-06T03:10:06.206Z,14.37
2019-01-06T03:12:52.502Z,16.37
2019-01-06T03:15:32.347Z,21.10
2019-01-06T03:18:25.762Z,15.47
2019-01-06T03:21:19.510Z,19.77
2019-01-06T03:24:20.413Z,22.13
2019-01-06T03:27:11.312Z,16.03
2019-01-06T03:29:57.794Z,18.03
2019-01-06T03:32:40.918Z,20.07
2019-01-06T03:35:31.657Z,21.20
2019-01-06T03:38:18.084Z,17.77
2019-01-06T03:41:18.007Z,19.27
2019-01-06T03:44:05.971Z,25.50
2019-01-06T03:46:53.862Z,22.27
2019-01-06T03:49:41.672Z,23.83
2019-01-06T03:52:34.174Z,25.97
2019-01-06T03:55:23.144Z,25.00
2019-01-06T03:58:10.042Z,24.13
2019-01-06T04:01:13.208Z,27.73
2019-01-06T04:04:02.640Z,29.57
2019-01-06T04:06:44.862Z,25.43
2019-01-06T04:09:31.547Z,22.83
2019-01-06T04:12:33.563Z,22.93
2019-01-06T04:15:17.023Z,27.33
2019-01-06T04:18:02.256Z,25.53
2019-01-06T04:20:48.860Z,27.43
2019-01-06T04:23:36.767Z,25.30
2019-01-06T04:26:33.406Z,23.70
2019-01-06T04:29:14.719Z,22.23
2019-01-06T04:32:08.486Z,19.67
2019-01-06T04:35:02.100Z,21.60
2019-01-06T04:37:58.950Z,21.03
2019-01-06T04:41:02.065Z,20.90
2019-01-06T04:43:58.790Z,24.53
2019-01-06T04:46:56.383Z,20.23
2019-01-06T04:49:56.473Z,22.50
2019-01-06T04:52:41.126Z,22.40
2019-01-06T04:55:26.468Z,26.60
2019-01-06T04:58:14.235Z,22.27
2019-01-06T05:01:01.951Z,28.30
2019-01-06T05:03:49.598Z,24.60
2019-01-06T05:06:45.857Z,22.07
2019-01-06T05:09:49.836Z,25.20
2019-01-06T05:12:40.730Z,30.47
2019-01-06T05:15:39.430Z,23.37
2019-01-06T05:18:30.271Z,28.70
2019-01-06T05:21:36.147Z,23.38
2019-01-06T05:24:50.434Z,23.37
2019-01-06T05:27:37.141Z,24.73
2019-01-06T05:30:40.065Z,24.40
2019-01-06T05:33:27.816Z,27.63
2019-01-06T05:36:14.598Z,29.07
2019-01-06T05:39:20.587Z,27.77
2019-01-06T05:42:17.274Z,25.57
2019-01-06T05:45:07.798Z,25.50
2019-01-06T05:47:58.481Z,24.67
2019-01-06T05:50:44.936Z,28.03
2019-01-06T05:53:34.823Z,26.93
2019-01-06T05:56:19.613Z,27.73
2019-01-06T05:59:25.834Z,27.30
2019-01-06T06:02:13.645Z,28.90
2019-01-06T06:05:07.480Z,31.20
2019-01-06T06:07:54.105Z,31.73
2019-01-06T06:10:43.530Z,27.20
2019-01-06T06:13:46.471Z,24.70
2019-01-06T06:16:37.312Z,26.73
2019-01-06T06:19:17.280Z,23.83
2019-01-06T06:22:17.129Z,28.63
2019-01-06T06:25:07.975Z,25.60
2019-01-06T06:27:49.838Z,24.70
2019-01-06T06:30:37.683Z,21.23
2019-01-06T06:33:37.728Z,24.37
2019-01-06T06:36:37.398Z,23.10
2019-01-06T06:39:19.092Z,20.13
2019-01-06T06:42:05.545Z,24.63
2019-01-06T06:44:52.257Z,20.67
2019-01-06T06:47:38.657Z,21.30
2019-01-06T06:50:28.541Z,19.50
2019-01-06T06:53:12.901Z,24.67
2019-01-06T06:55:57.993Z,20.80
2019-01-06T06:58:58.020Z,16.03
2019-01-06T07:02:28.434Z,20.23
2019-01-06T07:05:18.785Z,19.43
2019-01-06T07:08:18.963Z,19.80
2019-01-06T07:11:00.081Z,16.17
2019-01-06T07:14:06.326Z,17.67
2019-01-06T07:17:35.299Z,17.83
2019-01-06T07:20:26.709Z,18.20
2019-01-06T07:23:11.159Z,15.37
2019-01-06T07:26:02.059Z,18.37
2019-01-06T07:32:01.604Z,19.63
2019-01-06T07:34:57.221Z,18.70
2019-01-06T07:37:42.934Z,17.87
2019-01-06T07:40:29.735Z,15.90
2019-01-06T07:43:26.882Z,15.23
2019-01-06T07:46:22.603Z,11.70
2019-01-06T07:49:10.646Z,10.27
2019-01-06T07:51:57.556Z,10.60
2019-01-06T07:54:46.331Z,8.93
2019-01-06T07:57:32.794Z,10.50
2019-01-06T08:00:23.920Z,10.00
2019-01-06T08:03:24.079Z,9.93
2019-01-06T08:06:10.914Z,9.40
2019-01-06T08:08:58.307Z,13.40
2019-01-06T08:12:03.541Z,9.83
2019-01-06T08:14:49.874Z,10.07
2019-01-06T08:17:39.554Z,10.03
2019-01-06T08:20:26.034Z,8.63
2019-01-06T08:23:23.283Z,11.27
2019-01-06T08:26:16.328Z,9.73
2019-01-06T08:29:16.300Z,9.87
2019-01-06T08:32:10.106Z,11.30
2019-01-06T08:35:10.536Z,9.67
2019-01-06T08:38:04.672Z,8.40
2019-01-06T08:41:04.412Z,12.37
2019-01-06T08:43:52.417Z,10.83
2019-01-06T08:46:41.018Z,11.00
2019-01-06T08:49:31.306Z,10.27
2019-01-06T08:52:17.772Z,8.67
2019-01-06T08:55:04.687Z,12.77
2019-01-06T08:57:51.310Z,14.03
2019-01-06T09:00:33.677Z,10.70
2019-01-06T09:03:24.520Z,9.87
2019-01-06T09:06:21.716Z,12.33
2019-01-06T09:09:12.078Z,12.80
2019-01-06T09:12:00.801Z,11.23
2019-01-06T09:14:58.154Z,10.30
2019-01-06T09:17:44.636Z,10.13
2019-01-06T09:20:41.980Z,12.43
2019-01-06T09:23:29.958Z,11.40
2019-01-06T09:26:23.750Z,11.53
2019-01-06T09:29:10.130Z,12.87
2019-01-06T09:32:04.031Z,14.07
2019-01-06T09:34:50.915Z,12.17
2019-01-06T09:37:53.997Z,11.40
2019-01-06T09:40:40.742Z,11.80
2019-01-06T09:43:44.165Z,11.33
2019-01-06T09:46:31.017Z,13.67
2019-01-06T09:49:17.866Z,12.43
2019-01-06T09:52:04.804Z,12.23
2019-01-06T09:54:55.529Z,12.83
2019-01-06T09:57:58.719Z,14.97
2019-01-06T10:00:46.583Z,12.83
2019-01-06T10:03:46.839Z,12.20
2019-01-06T10:06:33.206Z,13.47
2019-01-06T10:09:33.913Z,12.20
2019-01-06T10:12:21.914Z,10.77
2019-01-06T10:15:12.810Z,12.73
2019-01-06T10:18:00.502Z,12.70
2019-01-06T10:20:48.112Z,13.27
2019-01-06T10:23:28.059Z,12.73
2019-01-06T10:26:11.741Z,13.73
2019-01-06T10:29:12.121Z,13.17
2019-01-06T10:32:00.224Z,17.03
2019-01-06T10:34:57.844Z,19.57
2019-01-06T10:37:49.040Z,14.27
2019-01-06T10:40:28.273Z,13.57
2019-01-06T10:43:10.091Z,13.13
2019-01-06T10:46:06.040Z,10.57
2019-01-06T10:48:57.458Z,12.67
2019-01-06T10:51:57.621Z,10.47
2019-01-06T10:54:54.955Z,10.97
2019-01-06T10:57:47.708Z,9.60
2019-01-06T11:00:38.497Z,12.47
2019-01-06T11:03:29.362Z,10.13
2019-01-06T11:06:17.499Z,11.43
2019-01-06T11:09:14.525Z,13.73
2019-01-06T11:12:11.022Z,12.63
2019-01-06T11:14:57.915Z,12.03
2019-01-06T11:17:54.823Z,11.20
2019-01-06T11:20:41.700Z,11.97
2019-01-06T11:23:28.339Z,13.67
2019-01-06T11:26:15.450Z,14.07
2019-01-06T11:29:02.277Z,14.07
2019-01-06T11:32:08.346Z,13.30
2019-01-06T11:34:59.518Z,13.03
2019-01-06T11:37:46.404Z,12.73
2019-01-06T11:40:37.589Z,11.37
2019-01-06T11:43:25.587Z,10.00
2019-01-06T11:46:25.639Z,13.93
2019-01-06T11:49:19.841Z,14.67
2019-01-06T11:52:06.296Z,12.03
2019-01-06T11:55:08.311Z,12.17
2019-01-06T11:57:55.227Z,13.97
2019-01-06T12:00:44.174Z,15.10
2019-01-06T12:03:44.176Z,10.33
2019-01-06T12:06:40.821Z,12.23
2019-01-06T12:09:22.838Z,13.20
2019-01-06T12:12:03.150Z,15.37
2019-01-06T12:15:03.944Z,11.27
2019-01-06T12:17:51.067Z,15.57
2019-01-06T12:20:42.355Z,13.22
2019-01-06T12:23:33.356Z,11.40
2019-01-06T12:26:22.671Z,13.03
2019-01-06T12:29:09.531Z,13.27
2019-01-06T12:31:56.487Z,13.03
2019-01-06T12:34:43.200Z,13.87
2019-01-06T12:37:23.098Z,14.13
2019-01-06T12:40:20.109Z,12.03
2019-01-06T12:43:11.210Z,12.17
2019-01-06T12:46:06.840Z,13.40
2019-01-06T12:48:53.687Z,15.13
2019-01-06T12:51:46.739Z,15.70
2019-01-06T12:54:33.493Z,16.03
2019-01-06T12:57:21.562Z,12.20
2019-01-06T13:00:14.801Z,16.23
2019-01-06T13:03:05.831Z,12.97
2019-01-06T13:06:09.133Z,17.55
2019-01-06T13:09:08.886Z,15.93
2019-01-06T13:12:09.023Z,15.10
2019-01-06T13:14:57.073Z,17.60
2019-01-06T13:17:42.474Z,21.73
2019-01-06T13:20:48.544Z,18.17
2019-01-06T13:23:29.762Z,16.33
2019-01-06T13:26:16.096Z,20.30
2019-01-06T13:29:00.447Z,17.67
2019-01-06T13:31:46.998Z,17.77
2019-01-06T13:34:33.347Z,19.73
2019-01-06T13:37:30.771Z,17.13
2019-01-06T13:40:17.763Z,21.33
2019-01-06T13:43:16.653Z,18.07
2019-01-06T13:46:14.068Z,15.50
2019-01-06T13:49:12.973Z,16.00
2019-01-06T13:52:07.785Z,14.93
2019-01-06T13:55:01.787Z,15.70
2019-01-06T13:57:48.446Z,15.43
2019-01-06T14:00:48.868Z,17.90
2019-01-06T14:03:40.237Z,13.33
2019-01-06T14:06:28.187Z,19.53
2019-01-06T14:09:15.168Z,16.13
2019-01-06T14:11:59.426Z,17.87
2019-01-06T14:14:49.159Z,15.80
2019-01-06T14:17:46.368Z,18.10
2019-01-06T14:20:46.361Z,16.60
2019-01-06T14:23:34.367Z,16.87
2019-01-06T14:26:25.818Z,15.23
2019-01-06T14:29:12.794Z,15.37
2019-01-06T14:31:59.634Z,14.20
2019-01-06T14:34:42.901Z,12.77
2019-01-06T14:37:29.663Z,15.03
2019-01-06T14:40:22.922Z,14.20
2019-01-06T14:43:16.936Z,13.63
2019-01-06T14:46:00.134Z,13.53
2019-01-06T14:48:46.889Z,16.30
2019-01-06T14:54:40.396Z,16.77
2019-01-06T14:57:27.941Z,13.80
2019-01-06T15:00:25.506Z,13.87
2019-01-06T15:03:15.205Z,10.87
2019-01-06T15:06:01.844Z,12.27
2019-01-06T15:08:49.900Z,12.53
2019-01-06T15:11:49.607Z,11.33
2019-01-06T15:14:36.009Z,11.70
2019-01-06T15:17:22.208Z,12.67
2019-01-06T15:20:18.731Z,11.37
2019-01-06T15:23:05.839Z,13.50
2019-01-06T15:25:51.862Z,13.00
2019-01-06T15:28:38.584Z,15.77
2019-01-06T15:31:41.968Z,13.87
2019-01-06T15:34:33.485Z,14.37
2019-01-06T15:37:13.157Z,16.30
2019-01-06T15:40:01.270Z,11.80
2019-01-06T15:42:49.109Z,15.13
2019-01-06T15:45:39.779Z,11.83
2019-01-06T15:48:33.510Z,12.33
2019-01-06T15:51:20.373Z,11.83
2019-01-06T15:54:07.112Z,11.40
2019-01-06T15:57:03.791Z,11.80
2019-01-06T15:59:49.998Z,11.47
2019-01-06T16:02:49.491Z,14.10
2019-01-06T16:05:40.145Z,10.33
2019-01-06T16:08:33.931Z,11.90
2019-01-06T16:11:20.638Z,11.67
2019-01-06T16:14:07.323Z,20.03
2019-01-06T16:17:07.506Z,18.50
2019-01-06T16:19:52.967Z,15.90
2019-01-06T16:22:44.587Z,20.47
2019-01-06T16:25:44.510Z,15.63
2019-01-06T16:28:23.304Z,57.10
2019-01-06T16:31:24.169Z,22.30
2019-01-06T16:34:14.977Z,9.43
2019-01-06T16:37:01.785Z,9.00
2019-01-06T16:39:55.902Z,9.93
2019-01-06T16:42:49.982Z,11.80
2019-01-06T16:45:37.789Z,10.83
2019-01-06T16:48:24.655Z,9.37
2019-01-06T16:51:24.438Z,18.97
2019-01-06T16:54:10.900Z,11.17
2019-01-06T16:56:54.310Z,9.07
2019-01-06T16:59:41.026Z,8.60
2019-01-06T17:02:29.046Z,10.13
2019-01-06T17:05:22.634Z,9.83
2019-01-06T17:08:15.498Z,11.77
2019-01-06T17:11:01.709Z,11.50
2019-01-06T17:13:52.667Z,14.30
2019-01-06T17:16:33.915Z,24.00
2019-01-06T17:19:20.694Z,27.00
2019-01-06T17:22:12.722Z,10.23
2019-01-06T17:25:07.874Z,13.37
2019-01-06T17:27:54.664Z,16.00
2019-01-06T17:30:44.282Z,10.00
2019-01-06T17:33:24.807Z,12.10
2019-01-06T17:36:14.274Z,11.73
2019-01-06T17:38:59.191Z,8.63
2019-01-06T17:41:46.005Z,10.53
2019-01-06T17:44:32.457Z,7.97
2019-01-06T17:47:19.760Z,10.83
2019-01-06T17:50:10.961Z,6.07
2019-01-06T17:53:08.124Z,4.83
2019-01-06T17:56:04.638Z,9.18
2019-01-06T17:58:52.485Z,8.70
2019-01-06T18:01:55.349Z,10.57
2019-01-06T18:04:37.132Z,7.87
2019-01-06T18:07:23.635Z,8.88
2019-01-06T18:10:10.684Z,7.77
2019-01-06T18:13:08.000Z,7.87
2019-01-06T18:15:54.828Z,8.23
2019-01-06T18:18:48.787Z,14.60
2019-01-06T18:21:48.739Z,16.17
2019-01-06T18:24:42.505Z,19.63
2019-01-06T18:27:25.667Z,10.40
2019-01-06T18:30:24.501Z,7.60
2019-01-06T18:33:31.162Z,9.50
2019-01-06T18:36:19.304Z,8.67
2019-01-06T18:39:16.072Z,9.50
2019-01-06T18:42:02.646Z,7.90
2019-01-06T18:45:09.034Z,8.33
2019-01-06T18:47:44.161Z,11.07
2019-01-06T18:50:32.002Z,8.97
2019-01-06T18:53:29.261Z,8.97
2019-01-06T18:56:20.438Z,10.50
2019-01-06T18:59:13.259Z,11.77
2019-01-06T19:02:01.505Z,10.07
2019-01-06T19:04:44.677Z,9.00
2019-01-06T19:07:23.771Z,11.10
2019-01-06T19:10:11.270Z,11.57
2019-01-06T19:13:08.473Z,24.80
2019-01-06T19:15:55.267Z,15.27
2019-01-06T19:18:53.062Z,28.97
2019-01-06T19:21:39.403Z,17.80
2019-01-06T19:24:34.356Z,19.27
2019-01-06T19:27:22.270Z,20.75
2019-01-06T19:30:14.645Z,11.77
2019-01-06T19:32:58.116Z,9.47
2019-01-06T19:35:47.063Z,8.10
2019-01-06T19:38:42.782Z,8.23
2019-01-06T19:41:50.951Z,6.83
2019-01-06T19:45:06.663Z,9.03
2019-01-06T19:48:12.333Z,7.50
2019-01-06T19:51:04.082Z,8.37
2019-01-06T19:53:59.533Z,8.97
2019-01-06T19:56:54.988Z,9.27
2019-01-06T19:59:45.219Z,13.00
2019-01-06T20:02:42.991Z,9.33
2019-01-06T20:05:43.840Z,9.00
2019-01-06T20:08:34.175Z,9.27
2019-01-06T20:11:21.821Z,12.93
2019-01-06T20:14:09.714Z,12.50
2019-01-06T20:16:56.059Z,10.97
2019-01-06T20:19:43.021Z,12.10
2019-01-06T20:22:26.814Z,11.90
2019-01-06T20:25:08.291Z,10.27
2019-01-06T20:27:58.197Z,11.57
2019-01-06T20:30:49.416Z,12.20
2019-01-06T20:34:16.942Z,10.03
2019-01-06T20:37:19.984Z,8.23
2019-01-06T20:40:06.708Z,11.23
2019-01-06T20:43:00.396Z,10.00
2019-01-06T20:45:47.252Z,8.50
2019-01-06T20:48:33.919Z,8.77
2019-01-06T20:51:28.115Z,7.40
2019-01-06T20:54:34.600Z,9.73
2019-01-06T20:57:21.806Z,8.63
2019-01-06T21:00:18.050Z,12.77
2019-01-06T21:02:59.834Z,8.70
2019-01-06T21:05:47.718Z,10.53
2019-01-06T21:08:31.999Z,10.57
2019-01-06T21:11:16.424Z,14.47
2019-01-06T21:14:03.136Z,21.60
2019-01-06T21:17:06.014Z,11.70
2019-01-06T21:19:58.661Z,8.17
2019-01-06T21:22:47.539Z,10.57
2019-01-06T21:25:38.136Z,9.80
2019-01-06T21:28:23.302Z,11.23
2019-01-06T21:31:09.632Z,9.13
2019-01-06T21:33:55.405Z,14.03
2019-01-06T21:36:50.017Z,16.20
2019-01-06T21:39:47.540Z,18.67
2019-01-06T21:42:36.144Z,10.97
2019-01-06T21:45:23.750Z,6.93
2019-01-06T21:48:27.086Z,6.70
2019-01-06T21:51:18.790Z,6.53
2019-01-06T21:54:25.647Z,7.43
2019-01-06T21:57:25.924Z,7.83
2019-01-06T22:00:23.570Z,6.87
2019-01-06T22:03:10.592Z,8.47
2019-01-06T22:05:55.090Z,4.80
2019-01-06T22:09:01.780Z,4.27
2019-01-06T22:11:49.761Z,5.00
2019-01-06T22:14:40.717Z,5.57
2019-01-06T22:17:30.214Z,5.17
2019-01-06T22:20:22.636Z,12.20
2019-01-06T22:23:09.764Z,7.37
2019-01-06T22:26:00.709Z,5.60
2019-01-06T22:29:05.210Z,5.00
2019-01-06T22:31:59.462Z,4.97
2019-01-06T22:34:46.957Z,3.70
2019-01-06T22:37:50.641Z,4.80
2019-01-06T22:40:33.405Z,3.23
2019-01-06T22:43:30.314Z,3.73
2019-01-06T22:46:16.675Z,3.03
2019-01-06T22:49:03.384Z,3.17
2019-01-06T22:52:09.105Z,2.27
2019-01-06T22:55:06.311Z,2.13
2019-01-06T22:58:12.134Z,1.93
2019-01-06T23:00:53.932Z,2.27
2019-01-06T23:03:40.824Z,2.73
2019-01-06T23:06:21.006Z,1.70
2019-01-06T23:09:02.737Z,1.77
2019-01-06T23:12:02.472Z,1.70
2019-01-06T23:14:59.552Z,1.97
2019-01-06T23:17:43.159Z,3.63
2019-01-06T23:20:33.991Z,2.13
2019-01-06T23:23:20.653Z,3.33
2019-01-06T23:26:13.166Z,2.23
2019-01-06T23:28:59.775Z,3.17
2019-01-06T23:31:50.883Z,1.80
2019-01-06T23:34:37.393Z,2.27
2019-01-06T23:37:23.616Z,2.40
2019-01-06T23:40:05.594Z,2.23
2019-01-06T23:42:50.593Z,2.07
2019-01-06T23:45:56.841Z,2.03
2019-01-06T23:48:46.052Z,2.00
2019-01-06T23:51:43.059Z,1.83
2019-01-06T23:54:28.199Z,1.60
2019-01-06T23:57:25.451Z,3.53
